createdAt,value
2019-01-30T00:02:51.557Z,8.70
2019-01-30T00:07:55.931Z,9.20
2019-01-30T00:13:00.250Z,8.60
2019-01-30T00:18:05.078Z,9.07
2019-01-30T00:23:09.400Z,9.20
2019-01-30T00:28:13.969Z,9.20
2019-01-30T00:33:18.289Z,8.57
2019-01-30T00:38:22.699Z,8.33
2019-01-30T00:43:27.071Z,8.87
2019-01-30T00:48:31.525Z,8.93
2019-01-30T00:53:35.859Z,8.90
2019-01-30T00:58:40.211Z,9.03
2019-01-30T01:03:44.716Z,10.40
2019-01-30T01:08:49.126Z,10.33
2019-01-30T01:13:53.523Z,10.90
2019-01-30T01:18:57.925Z,10.13
2019-01-30T01:24:02.301Z,10.90
2019-01-30T01:29:06.658Z,11.37
2019-01-30T01:34:11.095Z,10.67
2019-01-30T01:39:15.466Z,11.47
2019-01-30T01:44:19.810Z,10.98
2019-01-30T01:49:24.160Z,10.90
2019-01-30T01:54:28.510Z,11.20
2019-01-30T01:59:32.860Z,12.77
2019-01-30T02:04:37.237Z,12.10
2019-01-30T02:09:41.684Z,11.57
2019-01-30T02:14:46.060Z,11.33
2019-01-30T02:19:50.426Z,11.50
2019-01-30T02:24:54.875Z,10.48
2019-01-30T02:29:59.227Z,10.47
2019-01-30T02:35:03.755Z,10.20
2019-01-30T02:40:11.353Z,9.73
2019-01-30T02:45:21.415Z,10.30
2019-01-30T02:50:25.855Z,9.07
2019-01-30T02:55:30.314Z,8.93
2019-01-30T03:00:36.439Z,8.63
2019-01-30T03:05:40.771Z,9.60
2019-01-30T03:10:45.171Z,9.58
2019-01-30T03:15:49.549Z,8.47
2019-01-30T03:20:53.924Z,8.80
2019-01-30T03:25:58.312Z,8.00
2019-01-30T03:31:17.342Z,7.83
2019-01-30T03:36:08.750Z,9.07
2019-01-30T03:41:13.125Z,8.50
2019-01-30T03:46:17.708Z,7.93
2019-01-30T03:51:22.075Z,7.87
2019-01-30T03:56:26.556Z,7.50
2019-01-30T04:01:30.939Z,7.93
2019-01-30T04:06:35.318Z,8.00
2019-01-30T04:11:39.860Z,7.63
2019-01-30T04:16:44.214Z,7.77
2019-01-30T04:21:48.585Z,7.07
2019-01-30T04:26:52.960Z,7.37
2019-01-30T04:31:57.750Z,7.50
2019-01-30T04:37:02.268Z,7.07
2019-01-30T04:42:06.707Z,7.63
2019-01-30T04:47:11.183Z,7.47
2019-01-30T04:52:15.505Z,8.37
2019-01-30T04:57:19.897Z,8.23
2019-01-30T05:02:24.295Z,7.73
2019-01-30T05:07:28.644Z,7.47
2019-01-30T05:12:33.120Z,7.60
2019-01-30T05:17:37.502Z,7.50
2019-01-30T05:22:41.849Z,7.70
2019-01-30T05:27:46.251Z,7.67
2019-01-30T05:32:50.621Z,7.97
2019-01-30T05:37:55.050Z,7.80
2019-01-30T05:42:59.420Z,7.63
2019-01-30T05:48:03.819Z,7.80
2019-01-30T05:53:08.214Z,7.93
2019-01-30T05:58:12.593Z,7.40
2019-01-30T06:03:17.461Z,6.60
2019-01-30T06:08:21.808Z,7.00
2019-01-30T06:13:26.170Z,7.23
2019-01-30T06:18:30.511Z,7.23
2019-01-30T06:23:34.863Z,6.90
2019-01-30T06:28:39.232Z,6.63
2019-01-30T06:33:43.625Z,6.40
2019-01-30T06:38:48.007Z,6.73
2019-01-30T06:43:52.443Z,6.57
2019-01-30T06:48:56.784Z,6.27
2019-01-30T06:54:01.135Z,6.57
2019-01-30T06:59:06.067Z,6.37
2019-01-30T07:04:11.439Z,7.10
2019-01-30T07:09:16.259Z,6.67
2019-01-30T07:14:20.788Z,6.20
2019-01-30T07:19:25.177Z,6.87
2019-01-30T07:24:29.517Z,6.30
2019-01-30T07:29:33.857Z,5.53
2019-01-30T07:34:38.225Z,6.67
2019-01-30T07:39:42.603Z,6.40
2019-01-30T07:44:50.676Z,6.37
2019-01-30T07:49:53.020Z,6.00
2019-01-30T07:54:58.136Z,6.05
2019-01-30T08:00:02.514Z,5.53
2019-01-30T08:05:09.239Z,6.00
2019-01-30T08:10:15.319Z,5.80
2019-01-30T08:15:22.488Z,5.57
2019-01-30T08:20:26.850Z,6.53
2019-01-30T08:25:31.593Z,6.47
2019-01-30T08:30:36.417Z,5.90
2019-01-30T08:35:40.970Z,6.10
2019-01-30T08:40:46.393Z,5.67
2019-01-30T08:45:50.767Z,5.53
2019-01-30T08:50:55.130Z,5.87
2019-01-30T08:55:59.519Z,5.97
2019-01-30T09:01:03.940Z,5.27
2019-01-30T09:06:08.310Z,5.73
2019-01-30T09:11:12.638Z,5.17
2019-01-30T09:16:17.019Z,5.67
2019-01-30T09:21:21.383Z,5.73
2019-01-30T09:26:25.767Z,5.27
2019-01-30T09:31:30.105Z,5.37
2019-01-30T09:36:34.534Z,5.23
2019-01-30T09:41:38.867Z,5.73
2019-01-30T09:46:43.240Z,5.57
2019-01-30T09:51:47.645Z,5.10
2019-01-30T09:56:52.502Z,5.20
2019-01-30T10:01:56.828Z,5.00
2019-01-30T10:07:01.155Z,5.50
2019-01-30T10:12:05.584Z,5.00
2019-01-30T10:17:09.926Z,5.37
2019-01-30T10:22:15.431Z,4.97
2019-01-30T10:27:19.778Z,5.80
2019-01-30T10:32:24.147Z,4.87
2019-01-30T10:37:28.495Z,4.97
2019-01-30T10:42:32.848Z,5.67
2019-01-30T10:47:37.208Z,5.47
2019-01-30T10:52:41.595Z,6.00
2019-01-30T10:57:46.909Z,5.63
2019-01-30T11:02:51.345Z,5.43
2019-01-30T11:07:55.679Z,5.40
2019-01-30T11:13:00.017Z,5.13
2019-01-30T11:18:06.906Z,5.17
2019-01-30T11:23:11.242Z,5.57
2019-01-30T11:28:15.699Z,5.27
2019-01-30T11:33:20.329Z,5.07
2019-01-30T11:38:24.712Z,5.33
2019-01-30T11:43:29.041Z,5.22
2019-01-30T11:48:33.585Z,5.57
2019-01-30T11:53:37.921Z,6.00
2019-01-30T11:58:42.286Z,5.50
2019-01-30T12:03:46.697Z,5.57
2019-01-30T12:08:51.041Z,6.17
2019-01-30T12:13:55.474Z,5.70
2019-01-30T12:18:59.806Z,5.00
2019-01-30T12:24:04.337Z,5.43
2019-01-30T12:29:08.758Z,5.33
2019-01-30T12:34:13.129Z,5.37
2019-01-30T12:39:17.447Z,5.90
2019-01-30T12:44:21.976Z,5.63
2019-01-30T12:49:26.382Z,6.07
2019-01-30T12:54:30.740Z,5.37
2019-01-30T12:59:35.133Z,6.00
2019-01-30T13:04:39.492Z,5.50
2019-01-30T13:09:43.846Z,6.80
2019-01-30T13:14:48.211Z,5.77
2019-01-30T13:19:52.584Z,6.30
2019-01-30T13:24:56.924Z,5.93
2019-01-30T13:30:01.330Z,5.50
2019-01-30T13:35:07.436Z,6.00
2019-01-30T13:40:20.449Z,5.70
2019-01-30T13:45:24.895Z,5.83
2019-01-30T13:50:30.169Z,6.17
2019-01-30T13:55:34.630Z,6.30
2019-01-30T14:00:39.338Z,6.20
2019-01-30T14:05:43.701Z,7.17
2019-01-30T14:10:48.083Z,6.50
2019-01-30T14:15:52.437Z,7.20
2019-01-30T14:20:56.928Z,7.93
2019-01-30T14:26:01.304Z,7.20
2019-01-30T14:31:05.729Z,7.07
2019-01-30T14:36:10.106Z,7.07
2019-01-30T14:41:14.420Z,7.20
2019-01-30T14:46:18.819Z,7.27
2019-01-30T14:51:23.892Z,7.67
2019-01-30T14:56:28.226Z,8.30
2019-01-30T15:01:32.688Z,8.13
2019-01-30T15:06:37.205Z,8.17
2019-01-30T15:11:41.576Z,8.50
2019-01-30T15:16:45.977Z,9.00
2019-01-30T15:21:50.315Z,8.85
2019-01-30T15:26:54.680Z,9.23
2019-01-30T15:31:59.072Z,8.53
2019-01-30T15:37:03.421Z,9.37
2019-01-30T15:42:07.789Z,9.30
2019-01-30T15:47:12.142Z,8.60
2019-01-30T15:52:17.301Z,9.20
2019-01-30T15:57:21.717Z,8.97
2019-01-30T16:02:26.038Z,9.50
2019-01-30T16:07:30.415Z,8.40
2019-01-30T16:12:34.927Z,9.10
2019-01-30T16:17:39.268Z,9.07
2019-01-30T16:22:43.662Z,9.70
2019-01-30T16:27:48.081Z,9.37
2019-01-30T16:32:52.504Z,10.07
2019-01-30T16:37:56.968Z,9.83
2019-01-30T16:43:01.367Z,9.63
2019-01-30T16:48:06.780Z,9.47
2019-01-30T16:53:11.739Z,9.63
2019-01-30T16:58:16.275Z,9.87
2019-01-30T17:03:21.665Z,9.73
2019-01-30T17:08:26.295Z,9.77
2019-01-30T17:13:30.756Z,9.70
2019-01-30T17:18:35.160Z,10.03
2019-01-30T17:23:39.493Z,9.47
2019-01-30T17:28:43.870Z,10.70
2019-01-30T17:33:48.423Z,9.60
2019-01-30T17:38:52.822Z,9.63
2019-01-30T17:43:57.163Z,9.70
2019-01-30T17:49:01.546Z,10.17
2019-01-30T17:54:06.284Z,10.63
2019-01-30T17:59:10.676Z,10.43
2019-01-30T18:04:16.220Z,10.27
2019-01-30T18:09:20.769Z,9.77
2019-01-30T18:14:25.180Z,10.35
2019-01-30T18:19:29.655Z,11.23
2019-01-30T18:24:34.090Z,10.10
2019-01-30T18:29:39.214Z,11.53
2019-01-30T18:34:43.569Z,11.17
2019-01-30T18:39:49.664Z,11.13
2019-01-30T18:44:54.044Z,12.00
2019-01-30T18:49:58.471Z,11.90
2019-01-30T18:55:02.846Z,11.47
2019-01-30T19:00:19.420Z,11.30
2019-01-30T19:05:23.821Z,11.70
2019-01-30T19:10:28.262Z,11.50
2019-01-30T19:15:32.697Z,11.03
2019-01-30T19:20:39.438Z,12.03
2019-01-30T19:25:43.771Z,12.37
2019-01-30T19:30:49.186Z,11.63
2019-01-30T19:35:53.573Z,12.20
2019-01-30T19:40:58.074Z,11.90
2019-01-30T19:46:02.468Z,11.90
2019-01-30T19:51:06.879Z,12.80
2019-01-30T19:56:11.217Z,12.97
2019-01-30T20:01:15.636Z,13.40
2019-01-30T20:06:20.047Z,12.50
2019-01-30T20:11:24.394Z,12.73
2019-01-30T20:16:28.763Z,13.23
2019-01-30T20:21:33.150Z,13.53
2019-01-30T20:26:37.640Z,13.80
2019-01-30T20:31:42.055Z,13.90
2019-01-30T20:36:46.576Z,13.70
2019-01-30T20:41:50.954Z,13.87
2019-01-30T20:46:55.336Z,14.67
2019-01-30T20:51:59.704Z,14.97
2019-01-30T20:57:04.115Z,14.83
2019-01-30T21:02:08.534Z,14.83
2019-01-30T21:07:12.906Z,14.93
2019-01-30T21:12:17.368Z,15.77
2019-01-30T21:17:21.712Z,16.07
2019-01-30T21:22:26.083Z,15.10
2019-01-30T21:27:30.466Z,15.97
2019-01-30T21:32:34.940Z,15.47
2019-01-30T21:37:48.629Z,16.10
2019-01-30T21:42:45.967Z,16.27
2019-01-30T21:47:50.287Z,16.20
2019-01-30T21:52:54.697Z,16.07
2019-01-30T21:57:59.080Z,15.33
2019-01-30T22:03:03.568Z,15.67
2019-01-30T22:08:08.891Z,15.90
2019-01-30T22:13:13.372Z,15.33
2019-01-30T22:18:17.935Z,15.13
2019-01-30T22:23:22.463Z,14.93
2019-01-30T22:28:26.813Z,16.47
2019-01-30T22:33:31.519Z,16.17
2019-01-30T22:38:35.878Z,17.27
2019-01-30T22:43:40.637Z,17.00
2019-01-30T22:48:49.636Z,16.27
2019-01-30T22:53:54.215Z,16.13
2019-01-30T22:58:59.254Z,17.30
2019-01-30T23:04:26.597Z,17.17
2019-01-30T23:09:50.767Z,16.60
2019-01-30T23:15:04.410Z,17.50
2019-01-30T23:20:14.548Z,17.57
2019-01-30T23:25:45.927Z,16.60
2019-01-30T23:31:17.461Z,17.30
2019-01-30T23:36:32.223Z,18.25
2019-01-30T23:42:13.765Z,17.50
2019-01-30T23:47:21.317Z,18.03
2019-01-30T23:52:58.705Z,17.07
2019-01-30T23:58:15.428Z,17.73
